sensor_id;sensor_type;location;lat;lon;timestamp;P1;durP1;ratioP1;P2;durP2;ratioP2
25731;SDS011;13585;50.864;4.406;2023-05-24T00:02:07;8.85;;;4.32;;
25731;SDS011;13585;50.864;4.406;2023-05-24T00:04:33;9.70;;;4.47;;
25731;SDS011;13585;50.864;4.406;2023-05-24T00:06:59;9.60;;;4.50;;
25731;SDS011;13585;50.864;4.406;2023-05-24T00:09:27;8.98;;;4.60;;
25731;SDS011;13585;50.864;4.406;2023-05-24T00:11:56;9.10;;;4.47;;
25731;SDS011;13585;50.864;4.406;2023-05-24T00:14:22;9.07;;;3.65;;
25731;SDS011;13585;50.864;4.406;2023-05-24T01:15:38;7.28;;;3.85;;
25731;SDS011;13585;50.864;4.406;2023-05-24T01:29:15;9.00;;;3.83;;
25731;SDS011;13585;50.864;4.406;2023-05-24T01:31:41;8.68;;;3.78;;
25731;SDS011;13585;50.864;4.406;2023-05-24T01:34:07;6.53;;;4.07;;
25731;SDS011;13585;50.864;4.406;2023-05-24T01:36:32;8.85;;;3.63;;
25731;SDS011;13585;50.864;4.406;2023-05-24T01:38:58;8.05;;;3.83;;
25731;SDS011;13585;50.864;4.406;2023-05-24T01:44:20;7.75;;;3.53;;
25731;SDS011;13585;50.864;4.406;2023-05-24T01:47:03;10.25;;;4.25;;
25731;SDS011;13585;50.864;4.406;2023-05-24T01:49:58;6.95;;;3.63;;
25731;SDS011;13585;50.864;4.406;2023-05-24T01:52:44;7.03;;;3.55;;
25731;SDS011;13585;50.864;4.406;2023-05-24T01:55:14;8.43;;;3.72;;
25731;SDS011;13585;50.864;4.406;2023-05-24T01:57:42;5.65;;;3.33;;
25731;SDS011;13585;50.864;4.406;2023-05-24T02:00:10;7.97;;;3.47;;
25731;SDS011;13585;50.864;4.406;2023-05-24T02:02:39;7.90;;;3.67;;
25731;SDS011;13585;50.864;4.406;2023-05-24T02:05:05;8.10;;;3.67;;
25731;SDS011;13585;50.864;4.406;2023-05-24T02:07:31;8.95;;;3.50;;
25731;SDS011;13585;50.864;4.406;2023-05-24T02:09:57;9.23;;;3.60;;
25731;SDS011;13585;50.864;4.406;2023-05-24T02:12:22;6.55;;;3.35;;
25731;SDS011;13585;50.864;4.406;2023-05-24T02:14:48;6.05;;;3.15;;
25731;SDS011;13585;50.864;4.406;2023-05-24T02:17:15;6.85;;;3.28;;
25731;SDS011;13585;50.864;4.406;2023-05-24T02:19:42;7.07;;;3.67;;
25731;SDS011;13585;50.864;4.406;2023-05-24T02:22:07;7.07;;;3.25;;
25731;SDS011;13585;50.864;4.406;2023-05-24T02:24:33;7.10;;;3.70;;
25731;SDS011;13585;50.864;4.406;2023-05-24T02:27:00;8.43;;;3.42;;
25731;SDS011;13585;50.864;4.406;2023-05-24T02:29:26;5.85;;;3.17;;
25731;SDS011;13585;50.864;4.406;2023-05-24T02:31:52;5.72;;;2.92;;
25731;SDS011;13585;50.864;4.406;2023-05-24T02:34:20;7.55;;;3.53;;
25731;SDS011;13585;50.864;4.406;2023-05-24T02:36:47;5.35;;;2.95;;
25731;SDS011;13585;50.864;4.406;2023-05-24T02:39:13;6.28;;;3.30;;
25731;SDS011;13585;50.864;4.406;2023-05-24T02:41:38;7.35;;;3.47;;
25731;SDS011;13585;50.864;4.406;2023-05-24T02:44:05;7.75;;;3.40;;
25731;SDS011;13585;50.864;4.406;2023-05-24T02:46:31;9.15;;;3.42;;
25731;SDS011;13585;50.864;4.406;2023-05-24T02:48:57;9.52;;;3.17;;
25731;SDS011;13585;50.864;4.406;2023-05-24T02:51:23;6.47;;;3.20;;
25731;SDS011;13585;50.864;4.406;2023-05-24T02:53:48;6.60;;;3.40;;
25731;SDS011;13585;50.864;4.406;2023-05-24T02:56:14;5.85;;;2.85;;
25731;SDS011;13585;50.864;4.406;2023-05-24T02:58:43;6.25;;;3.53;;
25731;SDS011;13585;50.864;4.406;2023-05-24T03:01:12;6.53;;;3.22;;
25731;SDS011;13585;50.864;4.406;2023-05-24T03:03:38;7.47;;;3.42;;
25731;SDS011;13585;50.864;4.406;2023-05-24T03:06:04;6.85;;;3.15;;
25731;SDS011;13585;50.864;4.406;2023-05-24T03:08:31;5.03;;;3.00;;
25731;SDS011;13585;50.864;4.406;2023-05-24T03:10:57;6.82;;;3.22;;
25731;SDS011;13585;50.864;4.406;2023-05-24T03:13:23;5.95;;;2.95;;
25731;SDS011;13585;50.864;4.406;2023-05-24T03:15:48;5.95;;;3.10;;
25731;SDS011;13585;50.864;4.406;2023-05-24T03:18:14;4.47;;;2.72;;
25731;SDS011;13585;50.864;4.406;2023-05-24T03:20:40;5.88;;;2.65;;
25731;SDS011;13585;50.864;4.406;2023-05-24T03:23:06;7.22;;;3.42;;
25731;SDS011;13585;50.864;4.406;2023-05-24T03:25:33;5.20;;;2.95;;
25731;SDS011;13585;50.864;4.406;2023-05-24T03:27:59;7.97;;;3.00;;
25731;SDS011;13585;50.864;4.406;2023-05-24T03:30:26;6.97;;;2.92;;
25731;SDS011;13585;50.864;4.406;2023-05-24T03:32:52;5.60;;;2.92;;
25731;SDS011;13585;50.864;4.406;2023-05-24T03:35:18;8.18;;;2.95;;
25731;SDS011;13585;50.864;4.406;2023-05-24T03:37:44;8.25;;;2.92;;
25731;SDS011;13585;50.864;4.406;2023-05-24T03:40:10;6.47;;;3.30;;
25731;SDS011;13585;50.864;4.406;2023-05-24T03:42:36;7.30;;;3.20;;
25731;SDS011;13585;50.864;4.406;2023-05-24T03:45:02;6.55;;;2.88;;
25731;SDS011;13585;50.864;4.406;2023-05-24T03:47:29;5.93;;;2.83;;
25731;SDS011;13585;50.864;4.406;2023-05-24T03:49:54;5.57;;;3.00;;
25731;SDS011;13585;50.864;4.406;2023-05-24T03:52:20;5.28;;;2.67;;
25731;SDS011;13585;50.864;4.406;2023-05-24T03:54:45;7.88;;;3.05;;
25731;SDS011;13585;50.864;4.406;2023-05-24T03:57:11;6.97;;;2.92;;
25731;SDS011;13585;50.864;4.406;2023-05-24T03:59:37;5.85;;;2.65;;
25731;SDS011;13585;50.864;4.406;2023-05-24T04:02:02;5.65;;;2.80;;
25731;SDS011;13585;50.864;4.406;2023-05-24T04:04:28;6.18;;;2.95;;
25731;SDS011;13585;50.864;4.406;2023-05-24T04:06:54;6.38;;;2.88;;
25731;SDS011;13585;50.864;4.406;2023-05-24T04:09:21;5.93;;;2.72;;
25731;SDS011;13585;50.864;4.406;2023-05-24T04:11:47;6.22;;;3.20;;
25731;SDS011;13585;50.864;4.406;2023-05-24T04:14:12;7.57;;;3.17;;
25731;SDS011;13585;50.864;4.406;2023-05-24T04:16:38;6.00;;;2.60;;
25731;SDS011;13585;50.864;4.406;2023-05-24T04:19:05;4.57;;;2.47;;
25731;SDS011;13585;50.864;4.406;2023-05-24T04:21:31;5.85;;;2.58;;
25731;SDS011;13585;50.864;4.406;2023-05-24T04:23:58;6.50;;;2.88;;
25731;SDS011;13585;50.864;4.406;2023-05-24T04:26:25;6.38;;;2.85;;
25731;SDS011;13585;50.864;4.406;2023-05-24T04:28:51;7.00;;;3.05;;
25731;SDS011;13585;50.864;4.406;2023-05-24T04:31:17;5.57;;;2.78;;
25731;SDS011;13585;50.864;4.406;2023-05-24T04:33:44;4.60;;;2.45;;
25731;SDS011;13585;50.864;4.406;2023-05-24T04:36:09;6.30;;;2.72;;
25731;SDS011;13585;50.864;4.406;2023-05-24T04:38:36;5.45;;;2.30;;
25731;SDS011;13585;50.864;4.406;2023-05-24T04:41:02;7.85;;;3.00;;
25731;SDS011;13585;50.864;4.406;2023-05-24T04:43:29;6.68;;;2.80;;
25731;SDS011;13585;50.864;4.406;2023-05-24T04:45:56;7.28;;;2.75;;
25731;SDS011;13585;50.864;4.406;2023-05-24T04:48:22;4.63;;;2.47;;
25731;SDS011;13585;50.864;4.406;2023-05-24T04:50:51;6.63;;;2.80;;
25731;SDS011;13585;50.864;4.406;2023-05-24T04:53:18;6.57;;;2.30;;
25731;SDS011;13585;50.864;4.406;2023-05-24T04:55:44;7.15;;;2.70;;
25731;SDS011;13585;50.864;4.406;2023-05-24T04:58:10;7.85;;;2.80;;
25731;SDS011;13585;50.864;4.406;2023-05-24T05:00:36;5.32;;;3.08;;
25731;SDS011;13585;50.864;4.406;2023-05-24T05:03:01;8.68;;;2.95;;
25731;SDS011;13585;50.864;4.406;2023-05-24T05:05:27;6.00;;;2.83;;
25731;SDS011;13585;50.864;4.406;2023-05-24T05:07:53;3.75;;;2.05;;
25731;SDS011;13585;50.864;4.406;2023-05-24T05:10:18;5.72;;;2.88;;
25731;SDS011;13585;50.864;4.406;2023-05-24T05:12:44;7.75;;;2.85;;
25731;SDS011;13585;50.864;4.406;2023-05-24T05:15:10;5.50;;;2.42;;
25731;SDS011;13585;50.864;4.406;2023-05-24T05:17:36;6.45;;;2.53;;
25731;SDS011;13585;50.864;4.406;2023-05-24T05:20:02;6.10;;;2.38;;
25731;SDS011;13585;50.864;4.406;2023-05-24T05:22:28;5.70;;;2.63;;
25731;SDS011;13585;50.864;4.406;2023-05-24T05:24:54;6.80;;;2.40;;
25731;SDS011;13585;50.864;4.406;2023-05-24T05:27:19;6.22;;;2.50;;
25731;SDS011;13585;50.864;4.406;2023-05-24T05:29:45;5.25;;;2.47;;
25731;SDS011;13585;50.864;4.406;2023-05-24T05:32:11;5.15;;;2.17;;
25731;SDS011;13585;50.864;4.406;2023-05-24T05:34:36;7.25;;;2.80;;
25731;SDS011;13585;50.864;4.406;2023-05-24T05:37:02;6.43;;;3.00;;
25731;SDS011;13585;50.864;4.406;2023-05-24T05:39:27;4.50;;;2.35;;
25731;SDS011;13585;50.864;4.406;2023-05-24T05:41:55;4.80;;;2.47;;
25731;SDS011;13585;50.864;4.406;2023-05-24T05:44:21;7.18;;;2.35;;
25731;SDS011;13585;50.864;4.406;2023-05-24T05:46:47;7.85;;;2.90;;
25731;SDS011;13585;50.864;4.406;2023-05-24T05:49:14;7.88;;;2.72;;
25731;SDS011;13585;50.864;4.406;2023-05-24T05:51:40;4.72;;;2.50;;
25731;SDS011;13585;50.864;4.406;2023-05-24T05:54:07;4.43;;;2.22;;
25731;SDS011;13585;50.864;4.406;2023-05-24T05:56:39;6.97;;;2.63;;
25731;SDS011;13585;50.864;4.406;2023-05-24T05:59:09;5.53;;;2.22;;
25731;SDS011;13585;50.864;4.406;2023-05-24T06:01:35;4.63;;;2.47;;
25731;SDS011;13585;50.864;4.406;2023-05-24T06:04:01;8.10;;;2.95;;
25731;SDS011;13585;50.864;4.406;2023-05-24T06:06:27;6.25;;;2.17;;
25731;SDS011;13585;50.864;4.406;2023-05-24T06:08:52;7.63;;;2.58;;
25731;SDS011;13585;50.864;4.406;2023-05-24T06:11:18;6.00;;;2.42;;
25731;SDS011;13585;50.864;4.406;2023-05-24T06:13:43;7.05;;;2.33;;
25731;SDS011;13585;50.864;4.406;2023-05-24T06:16:09;6.50;;;2.38;;
25731;SDS011;13585;50.864;4.406;2023-05-24T06:18:35;5.65;;;2.30;;
25731;SDS011;13585;50.864;4.406;2023-05-24T06:21:01;4.97;;;1.92;;
25731;SDS011;13585;50.864;4.406;2023-05-24T06:23:26;6.88;;;2.28;;
25731;SDS011;13585;50.864;4.406;2023-05-24T06:25:52;5.38;;;2.40;;
25731;SDS011;13585;50.864;4.406;2023-05-24T06:28:18;5.20;;;1.92;;
25731;SDS011;13585;50.864;4.406;2023-05-24T06:30:44;6.20;;;2.20;;
25731;SDS011;13585;50.864;4.406;2023-05-24T06:33:10;5.43;;;2.00;;
25731;SDS011;13585;50.864;4.406;2023-05-24T06:35:36;6.43;;;2.40;;
25731;SDS011;13585;50.864;4.406;2023-05-24T06:38:01;7.20;;;2.53;;
25731;SDS011;13585;50.864;4.406;2023-05-24T06:40:27;6.60;;;2.10;;
25731;SDS011;13585;50.864;4.406;2023-05-24T06:42:52;6.55;;;2.10;;
25731;SDS011;13585;50.864;4.406;2023-05-24T06:45:18;5.55;;;2.20;;
25731;SDS011;13585;50.864;4.406;2023-05-24T06:47:44;6.68;;;2.15;;
25731;SDS011;13585;50.864;4.406;2023-05-24T06:50:10;8.15;;;2.38;;
25731;SDS011;13585;50.864;4.406;2023-05-24T06:52:36;7.88;;;2.58;;
25731;SDS011;13585;50.864;4.406;2023-05-24T06:55:02;5.50;;;2.13;;
25731;SDS011;13585;50.864;4.406;2023-05-24T06:57:28;7.35;;;2.45;;
25731;SDS011;13585;50.864;4.406;2023-05-24T06:59:54;9.48;;;2.10;;
25731;SDS011;13585;50.864;4.406;2023-05-24T07:02:19;10.55;;;2.55;;
25731;SDS011;13585;50.864;4.406;2023-05-24T07:04:50;5.82;;;2.25;;
25731;SDS011;13585;50.864;4.406;2023-05-24T07:07:16;6.22;;;2.33;;
25731;SDS011;13585;50.864;4.406;2023-05-24T07:09:42;8.32;;;2.63;;
25731;SDS011;13585;50.864;4.406;2023-05-24T07:12:08;7.95;;;2.78;;
25731;SDS011;13585;50.864;4.406;2023-05-24T07:14:34;7.60;;;2.35;;
25731;SDS011;13585;50.864;4.406;2023-05-24T07:16:59;5.57;;;2.67;;
25731;SDS011;13585;50.864;4.406;2023-05-24T07:19:25;6.30;;;2.42;;
25731;SDS011;13585;50.864;4.406;2023-05-24T07:21:56;6.20;;;2.10;;
25731;SDS011;13585;50.864;4.406;2023-05-24T07:24:22;6.80;;;2.60;;
25731;SDS011;13585;50.864;4.406;2023-05-24T07:26:49;4.38;;;2.00;;
25731;SDS011;13585;50.864;4.406;2023-05-24T07:29:17;9.73;;;2.00;;
25731;SDS011;13585;50.864;4.406;2023-05-24T07:31:43;5.78;;;2.25;;
25731;SDS011;13585;50.864;4.406;2023-05-24T07:34:09;9.75;;;2.35;;
25731;SDS011;13585;50.864;4.406;2023-05-24T07:36:35;5.75;;;2.15;;
25731;SDS011;13585;50.864;4.406;2023-05-24T07:39:01;8.75;;;2.28;;
25731;SDS011;13585;50.864;4.406;2023-05-24T07:41:29;8.45;;;2.35;;
25731;SDS011;13585;50.864;4.406;2023-05-24T07:43:57;5.70;;;2.15;;
25731;SDS011;13585;50.864;4.406;2023-05-24T07:46:22;7.70;;;2.10;;
25731;SDS011;13585;50.864;4.406;2023-05-24T07:48:48;5.90;;;2.20;;
25731;SDS011;13585;50.864;4.406;2023-05-24T07:51:14;6.57;;;2.30;;
25731;SDS011;13585;50.864;4.406;2023-05-24T07:53:40;4.72;;;1.90;;
25731;SDS011;13585;50.864;4.406;2023-05-24T07:56:05;9.07;;;2.22;;
25731;SDS011;13585;50.864;4.406;2023-05-24T08:06:18;5.63;;;2.15;;
25731;SDS011;13585;50.864;4.406;2023-05-24T08:08:43;6.93;;;2.60;;
25731;SDS011;13585;50.864;4.406;2023-05-24T08:11:09;6.78;;;2.15;;
25731;SDS011;13585;50.864;4.406;2023-05-24T08:13:36;5.43;;;1.90;;
25731;SDS011;13585;50.864;4.406;2023-05-24T08:16:01;6.90;;;2.40;;
25731;SDS011;13585;50.864;4.406;2023-05-24T08:18:27;7.65;;;2.22;;
25731;SDS011;13585;50.864;4.406;2023-05-24T08:20:53;8.05;;;2.53;;
25731;SDS011;13585;50.864;4.406;2023-05-24T08:23:18;3.45;;;1.67;;
25731;SDS011;13585;50.864;4.406;2023-05-24T08:25:44;6.38;;;2.17;;
25731;SDS011;13585;50.864;4.406;2023-05-24T08:28:09;3.72;;;1.90;;
25731;SDS011;13585;50.864;4.406;2023-05-24T08:30:35;4.85;;;2.00;;
25731;SDS011;13585;50.864;4.406;2023-05-24T08:33:01;4.95;;;2.10;;
25731;SDS011;13585;50.864;4.406;2023-05-24T08:35:27;6.15;;;2.13;;
25731;SDS011;13585;50.864;4.406;2023-05-24T08:37:52;4.00;;;1.77;;
25731;SDS011;13585;50.864;4.406;2023-05-24T08:40:18;3.97;;;1.65;;
25731;SDS011;13585;50.864;4.406;2023-05-24T08:42:44;6.85;;;1.88;;
25731;SDS011;13585;50.864;4.406;2023-05-24T08:45:11;7.93;;;2.30;;
25731;SDS011;13585;50.864;4.406;2023-05-24T08:47:38;8.45;;;2.50;;
25731;SDS011;13585;50.864;4.406;2023-05-24T08:50:05;3.92;;;1.77;;
25731;SDS011;13585;50.864;4.406;2023-05-24T08:52:32;6.63;;;2.50;;
25731;SDS011;13585;50.864;4.406;2023-05-24T08:54:58;5.40;;;1.65;;
25731;SDS011;13585;50.864;4.406;2023-05-24T08:57:27;3.90;;;1.85;;
25731;SDS011;13585;50.864;4.406;2023-05-24T08:59:55;4.00;;;1.80;;
25731;SDS011;13585;50.864;4.406;2023-05-24T09:02:21;3.65;;;2.00;;
25731;SDS011;13585;50.864;4.406;2023-05-24T09:04:48;4.78;;;2.05;;
25731;SDS011;13585;50.864;4.406;2023-05-24T09:07:20;5.25;;;2.15;;
25731;SDS011;13585;50.864;4.406;2023-05-24T09:09:52;8.27;;;2.00;;
25731;SDS011;13585;50.864;4.406;2023-05-24T09:12:22;5.32;;;2.10;;
25731;SDS011;13585;50.864;4.406;2023-05-24T09:14:50;4.25;;;1.95;;
25731;SDS011;13585;50.864;4.406;2023-05-24T09:17:16;4.25;;;1.73;;
25731;SDS011;13585;50.864;4.406;2023-05-24T09:19:46;5.93;;;2.00;;
25731;SDS011;13585;50.864;4.406;2023-05-24T09:22:15;4.50;;;1.60;;
25731;SDS011;13585;50.864;4.406;2023-05-24T09:24:46;6.15;;;2.00;;
25731;SDS011;13585;50.864;4.406;2023-05-24T09:27:15;3.55;;;1.70;;
25731;SDS011;13585;50.864;4.406;2023-05-24T09:29:42;6.28;;;2.25;;
25731;SDS011;13585;50.864;4.406;2023-05-24T09:32:10;4.85;;;2.13;;
25731;SDS011;13585;50.864;4.406;2023-05-24T09:34:37;4.90;;;1.92;;
25731;SDS011;13585;50.864;4.406;2023-05-24T09:37:04;8.27;;;2.38;;
25731;SDS011;13585;50.864;4.406;2023-05-24T09:39:31;6.00;;;1.65;;
25731;SDS011;13585;50.864;4.406;2023-05-24T09:41:56;5.65;;;2.30;;
25731;SDS011;13585;50.864;4.406;2023-05-24T09:44:25;7.07;;;2.28;;
25731;SDS011;13585;50.864;4.406;2023-05-24T09:46:52;4.78;;;1.77;;
25731;SDS011;13585;50.864;4.406;2023-05-24T09:49:21;4.30;;;2.13;;
25731;SDS011;13585;50.864;4.406;2023-05-24T09:51:47;3.38;;;1.77;;
25731;SDS011;13585;50.864;4.406;2023-05-24T09:54:21;4.28;;;2.10;;
25731;SDS011;13585;50.864;4.406;2023-05-24T09:56:50;5.38;;;2.30;;
25731;SDS011;13585;50.864;4.406;2023-05-24T09:59:16;6.28;;;2.30;;
25731;SDS011;13585;50.864;4.406;2023-05-24T10:01:43;5.70;;;2.40;;
25731;SDS011;13585;50.864;4.406;2023-05-24T10:04:10;4.15;;;2.00;;
25731;SDS011;13585;50.864;4.406;2023-05-24T10:06:36;4.80;;;2.17;;
25731;SDS011;13585;50.864;4.406;2023-05-24T10:09:03;3.90;;;2.00;;
25731;SDS011;13585;50.864;4.406;2023-05-24T10:14:43;4.82;;;2.03;;
25731;SDS011;13585;50.864;4.406;2023-05-24T10:17:09;5.28;;;2.10;;
25731;SDS011;13585;50.864;4.406;2023-05-24T10:19:35;4.13;;;2.22;;
25731;SDS011;13585;50.864;4.406;2023-05-24T10:22:06;5.95;;;2.20;;
25731;SDS011;13585;50.864;4.406;2023-05-24T10:24:37;6.88;;;2.60;;
25731;SDS011;13585;50.864;4.406;2023-05-24T10:27:05;4.78;;;2.20;;
25731;SDS011;13585;50.864;4.406;2023-05-24T10:32:23;6.93;;;2.80;;
25731;SDS011;13585;50.864;4.406;2023-05-24T10:34:50;4.95;;;2.13;;
25731;SDS011;13585;50.864;4.406;2023-05-24T10:37:18;10.23;;;2.90;;
25731;SDS011;13585;50.864;4.406;2023-05-24T10:39:43;7.07;;;2.50;;
25731;SDS011;13585;50.864;4.406;2023-05-24T10:44:44;7.40;;;2.70;;
25731;SDS011;13585;50.864;4.406;2023-05-24T10:47:11;6.10;;;2.60;;
25731;SDS011;13585;50.864;4.406;2023-05-24T10:49:47;9.70;;;3.15;;
25731;SDS011;13585;50.864;4.406;2023-05-24T10:52:15;7.95;;;2.53;;
25731;SDS011;13585;50.864;4.406;2023-05-24T10:57:35;16.55;;;9.50;;
25731;SDS011;13585;50.864;4.406;2023-05-24T11:03:12;12.68;;;9.02;;
25731;SDS011;13585;50.864;4.406;2023-05-24T11:05:48;14.38;;;9.70;;
25731;SDS011;13585;50.864;4.406;2023-05-24T11:08:32;16.35;;;9.95;;
25731;SDS011;13585;50.864;4.406;2023-05-24T11:11:05;15.85;;;9.05;;
25731;SDS011;13585;50.864;4.406;2023-05-24T11:13:33;15.70;;;8.40;;
25731;SDS011;13585;50.864;4.406;2023-05-24T11:16:01;13.90;;;8.27;;
25731;SDS011;13585;50.864;4.406;2023-05-24T11:18:26;13.52;;;7.63;;
25731;SDS011;13585;50.864;4.406;2023-05-24T11:20:52;13.70;;;7.63;;
25731;SDS011;13585;50.864;4.406;2023-05-24T11:23:18;11.88;;;6.65;;
25731;SDS011;13585;50.864;4.406;2023-05-24T11:25:45;8.43;;;5.60;;
25731;SDS011;13585;50.864;4.406;2023-05-24T11:28:11;7.90;;;5.38;;
25731;SDS011;13585;50.864;4.406;2023-05-24T11:30:38;9.63;;;5.30;;
25731;SDS011;13585;50.864;4.406;2023-05-24T11:33:14;9.50;;;5.28;;
25731;SDS011;13585;50.864;4.406;2023-05-24T11:35:47;9.05;;;4.80;;
25731;SDS011;13585;50.864;4.406;2023-05-24T11:38:16;9.95;;;4.90;;
25731;SDS011;13585;50.864;4.406;2023-05-24T12:04:39;9.65;;;4.20;;
25731;SDS011;13585;50.864;4.406;2023-05-24T12:07:09;6.35;;;3.88;;
25731;SDS011;13585;50.864;4.406;2023-05-24T12:09:36;9.90;;;3.95;;
25731;SDS011;13585;50.864;4.406;2023-05-24T12:12:02;6.80;;;3.90;;
25731;SDS011;13585;50.864;4.406;2023-05-24T12:14:34;8.30;;;4.10;;
25731;SDS011;13585;50.864;4.406;2023-05-24T12:17:21;6.88;;;4.35;;
25731;SDS011;13585;50.864;4.406;2023-05-24T12:19:53;7.05;;;4.22;;
25731;SDS011;13585;50.864;4.406;2023-05-24T12:22:18;7.95;;;4.22;;
25731;SDS011;13585;50.864;4.406;2023-05-24T12:28:08;7.53;;;3.67;;
25731;SDS011;13585;50.864;4.406;2023-05-24T12:30:35;7.07;;;4.00;;
25731;SDS011;13585;50.864;4.406;2023-05-24T12:33:01;9.18;;;4.05;;
25731;SDS011;13585;50.864;4.406;2023-05-24T12:35:27;7.93;;;4.18;;
25731;SDS011;13585;50.864;4.406;2023-05-24T12:37:57;7.68;;;4.63;;
25731;SDS011;13585;50.864;4.406;2023-05-24T12:40:24;7.18;;;3.45;;
25731;SDS011;13585;50.864;4.406;2023-05-24T12:42:51;6.60;;;3.85;;
25731;SDS011;13585;50.864;4.406;2023-05-24T12:45:20;6.35;;;3.63;;
25731;SDS011;13585;50.864;4.406;2023-05-24T12:47:53;8.73;;;3.80;;
25731;SDS011;13585;50.864;4.406;2023-05-24T12:50:20;7.97;;;4.15;;
25731;SDS011;13585;50.864;4.406;2023-05-24T12:52:49;5.78;;;3.20;;
25731;SDS011;13585;50.864;4.406;2023-05-24T12:55:55;6.60;;;3.88;;
25731;SDS011;13585;50.864;4.406;2023-05-24T12:58:21;7.57;;;3.80;;
25731;SDS011;13585;50.864;4.406;2023-05-24T13:00:47;8.57;;;3.92;;
25731;SDS011;13585;50.864;4.406;2023-05-24T13:03:14;7.22;;;3.72;;
25731;SDS011;13585;50.864;4.406;2023-05-24T13:05:40;6.20;;;3.53;;
25731;SDS011;13585;50.864;4.406;2023-05-24T13:08:06;7.22;;;3.33;;
25731;SDS011;13585;50.864;4.406;2023-05-24T13:10:32;7.35;;;4.50;;
25731;SDS011;13585;50.864;4.406;2023-05-24T13:12:58;6.93;;;4.07;;
25731;SDS011;13585;50.864;4.406;2023-05-24T13:15:24;7.75;;;3.28;;
25731;SDS011;13585;50.864;4.406;2023-05-24T13:17:51;7.72;;;3.63;;
25731;SDS011;13585;50.864;4.406;2023-05-24T13:20:18;7.10;;;3.63;;
25731;SDS011;13585;50.864;4.406;2023-05-24T13:22:46;5.43;;;3.47;;
25731;SDS011;13585;50.864;4.406;2023-05-24T13:25:13;7.72;;;3.50;;
25731;SDS011;13585;50.864;4.406;2023-05-24T13:27:39;6.43;;;3.42;;
25731;SDS011;13585;50.864;4.406;2023-05-24T13:30:05;8.88;;;3.70;;
25731;SDS011;13585;50.864;4.406;2023-05-24T13:32:31;6.47;;;3.67;;
25731;SDS011;13585;50.864;4.406;2023-05-24T13:34:57;5.57;;;3.40;;
25731;SDS011;13585;50.864;4.406;2023-05-24T13:37:23;5.97;;;3.30;;
25731;SDS011;13585;50.864;4.406;2023-05-24T13:39:49;4.60;;;3.08;;
25731;SDS011;13585;50.864;4.406;2023-05-24T13:42:15;5.95;;;3.40;;
25731;SDS011;13585;50.864;4.406;2023-05-24T13:44:41;4.25;;;3.20;;
25731;SDS011;13585;50.864;4.406;2023-05-24T13:47:07;6.55;;;3.50;;
25731;SDS011;13585;50.864;4.406;2023-05-24T13:49:33;5.35;;;3.33;;
25731;SDS011;13585;50.864;4.406;2023-05-24T13:51:58;5.30;;;3.40;;
25731;SDS011;13585;50.864;4.406;2023-05-24T13:54:24;6.93;;;3.67;;
25731;SDS011;13585;50.864;4.406;2023-05-24T13:56:51;5.07;;;3.20;;
25731;SDS011;13585;50.864;4.406;2023-05-24T13:59:21;7.15;;;3.78;;
25731;SDS011;13585;50.864;4.406;2023-05-24T14:01:46;5.43;;;3.42;;
25731;SDS011;13585;50.864;4.406;2023-05-24T14:04:12;5.57;;;3.03;;
25731;SDS011;13585;50.864;4.406;2023-05-24T14:06:37;5.82;;;3.60;;
25731;SDS011;13585;50.864;4.406;2023-05-24T14:09:04;5.93;;;3.55;;
25731;SDS011;13585;50.864;4.406;2023-05-24T14:11:33;6.43;;;3.15;;
25731;SDS011;13585;50.864;4.406;2023-05-24T14:13:59;5.68;;;2.95;;
25731;SDS011;13585;50.864;4.406;2023-05-24T14:16:26;7.05;;;3.60;;
25731;SDS011;13585;50.864;4.406;2023-05-24T14:18:52;4.15;;;2.90;;
25731;SDS011;13585;50.864;4.406;2023-05-24T14:21:18;8.05;;;3.25;;
25731;SDS011;13585;50.864;4.406;2023-05-24T14:23:54;6.28;;;3.40;;
25731;SDS011;13585;50.864;4.406;2023-05-24T14:26:28;5.65;;;2.97;;
25731;SDS011;13585;50.864;4.406;2023-05-24T14:29:03;4.85;;;2.83;;
25731;SDS011;13585;50.864;4.406;2023-05-24T14:31:32;5.15;;;2.97;;
25731;SDS011;13585;50.864;4.406;2023-05-24T14:34:05;4.40;;;2.97;;
25731;SDS011;13585;50.864;4.406;2023-05-24T14:36:31;5.18;;;3.20;;
25731;SDS011;13585;50.864;4.406;2023-05-24T14:38:57;5.15;;;3.35;;
25731;SDS011;13585;50.864;4.406;2023-05-24T14:41:23;5.40;;;3.20;;
25731;SDS011;13585;50.864;4.406;2023-05-24T14:43:48;6.50;;;3.08;;
25731;SDS011;13585;50.864;4.406;2023-05-24T14:46:15;5.70;;;3.50;;
25731;SDS011;13585;50.864;4.406;2023-05-24T14:48:40;4.82;;;2.95;;
25731;SDS011;13585;50.864;4.406;2023-05-24T14:51:06;5.25;;;3.00;;
25731;SDS011;13585;50.864;4.406;2023-05-24T14:53:31;4.65;;;2.80;;
25731;SDS011;13585;50.864;4.406;2023-05-24T14:55:57;4.00;;;2.88;;
25731;SDS011;13585;50.864;4.406;2023-05-24T14:58:23;5.72;;;2.67;;
25731;SDS011;13585;50.864;4.406;2023-05-24T15:00:48;5.32;;;2.88;;
25731;SDS011;13585;50.864;4.406;2023-05-24T15:03:15;6.25;;;3.13;;
25731;SDS011;13585;50.864;4.406;2023-05-24T15:05:40;6.45;;;2.80;;
25731;SDS011;13585;50.864;4.406;2023-05-24T15:08:07;4.35;;;2.78;;
25731;SDS011;13585;50.864;4.406;2023-05-24T15:10:33;5.80;;;3.08;;
25731;SDS011;13585;50.864;4.406;2023-05-24T15:12:59;4.18;;;3.15;;
25731;SDS011;13585;50.864;4.406;2023-05-24T15:15:25;4.80;;;3.00;;
25731;SDS011;13585;50.864;4.406;2023-05-24T15:17:50;4.82;;;2.70;;
25731;SDS011;13585;50.864;4.406;2023-05-24T15:20:16;6.00;;;3.13;;
25731;SDS011;13585;50.864;4.406;2023-05-24T15:22:42;3.35;;;2.75;;
25731;SDS011;13585;50.864;4.406;2023-05-24T15:25:07;5.40;;;2.90;;
25731;SDS011;13585;50.864;4.406;2023-05-24T15:27:34;4.78;;;3.10;;
25731;SDS011;13585;50.864;4.406;2023-05-24T15:30:00;4.43;;;3.13;;
25731;SDS011;13585;50.864;4.406;2023-05-24T15:32:25;6.28;;;3.03;;
25731;SDS011;13585;50.864;4.406;2023-05-24T15:34:51;3.33;;;2.72;;
25731;SDS011;13585;50.864;4.406;2023-05-24T15:37:17;6.15;;;3.03;;
25731;SDS011;13585;50.864;4.406;2023-05-24T15:39:44;4.97;;;2.75;;
25731;SDS011;13585;50.864;4.406;2023-05-24T15:42:10;5.38;;;3.03;;
25731;SDS011;13585;50.864;4.406;2023-05-24T15:47:07;6.10;;;2.78;;
25731;SDS011;13585;50.864;4.406;2023-05-24T15:49:33;4.85;;;3.00;;
25731;SDS011;13585;50.864;4.406;2023-05-24T15:51:59;4.68;;;2.97;;
25731;SDS011;13585;50.864;4.406;2023-05-24T15:54:27;4.65;;;2.65;;
25731;SDS011;13585;50.864;4.406;2023-05-24T15:56:53;5.45;;;3.42;;
25731;SDS011;13585;50.864;4.406;2023-05-24T15:59:19;6.10;;;2.95;;
25731;SDS011;13585;50.864;4.406;2023-05-24T16:01:44;4.55;;;2.90;;
25731;SDS011;13585;50.864;4.406;2023-05-24T16:04:30;4.95;;;2.90;;
25731;SDS011;13585;50.864;4.406;2023-05-24T16:06:55;5.70;;;2.88;;
25731;SDS011;13585;50.864;4.406;2023-05-24T16:09:24;4.68;;;3.05;;
25731;SDS011;13585;50.864;4.406;2023-05-24T16:11:50;5.25;;;3.15;;
25731;SDS011;13585;50.864;4.406;2023-05-24T16:14:16;3.95;;;2.90;;
25731;SDS011;13585;50.864;4.406;2023-05-24T16:16:44;8.10;;;3.10;;
25731;SDS011;13585;50.864;4.406;2023-05-24T16:19:10;9.30;;;3.83;;
25731;SDS011;13585;50.864;4.406;2023-05-24T16:21:36;5.47;;;2.95;;
25731;SDS011;13585;50.864;4.406;2023-05-24T16:24:02;5.28;;;2.88;;
25731;SDS011;13585;50.864;4.406;2023-05-24T16:26:29;4.72;;;2.58;;
25731;SDS011;13585;50.864;4.406;2023-05-24T16:28:55;5.05;;;2.63;;
25731;SDS011;13585;50.864;4.406;2023-05-24T16:31:21;5.13;;;2.63;;
25731;SDS011;13585;50.864;4.406;2023-05-24T16:33:46;4.53;;;2.75;;
25731;SDS011;13585;50.864;4.406;2023-05-24T16:36:12;7.25;;;3.15;;
25731;SDS011;13585;50.864;4.406;2023-05-24T16:38:38;7.22;;;3.15;;
25731;SDS011;13585;50.864;4.406;2023-05-24T16:41:04;7.70;;;3.13;;
25731;SDS011;13585;50.864;4.406;2023-05-24T16:43:30;7.18;;;3.15;;
25731;SDS011;13585;50.864;4.406;2023-05-24T16:45:56;6.60;;;2.80;;
25731;SDS011;13585;50.864;4.406;2023-05-24T16:48:23;6.90;;;3.20;;
25731;SDS011;13585;50.864;4.406;2023-05-24T16:50:52;5.25;;;2.65;;
25731;SDS011;13585;50.864;4.406;2023-05-24T16:53:21;6.82;;;2.95;;